Time;durP1;ratioP1;P1;durP2;ratioP2;P2;SDS_P1;SDS_P2;PMS_P1;PMS_P2;Temp;Humidity;BMP_temperature;BMP_pressure;BME280_temperature;BME280_humidity;BME280_pressure;Samples;Min_cycle;Max_cycle;Signal;HPM_P1;HPM_P2
2022/05/31 00:02:14;;;;;;;1.38;0.95;;;10.80;99.90;;;;;;5060934;28;20136;-59
2022/05/31 00:04:40;;;;;;;0.98;0.70;;;10.80;99.90;;;;;;5060131;28;20135;-59
2022/05/31 00:07:07;;;;;;;1.10;0.73;;;10.80;99.90;;;;;;5060305;28;20167;-59
2022/05/31 00:09:34;;;;;;;0.93;0.82;;;10.90;99.90;;;;;;5093096;28;20587;-59
2022/05/31 00:12:01;;;;;;;1.10;0.90;;;10.90;99.90;;;;;;5061252;28;20136;-59
2022/05/31 00:14:27;;;;;;;1.65;0.98;;;10.90;99.90;;;;;;5061002;28;20343;-60
2022/05/31 00:16:54;;;;;;;0.70;0.70;;;10.90;99.90;;;;;;5060072;28;20503;-59
2022/05/31 00:19:21;;;;;;;0.73;0.50;;;10.90;99.90;;;;;;5060986;28;20059;-59
2022/05/31 00:21:57;;;;;;;0.82;0.82;;;10.90;99.90;;;;;;5060473;28;20146;-60
2022/05/31 00:24:24;;;;;;;0.85;0.80;;;10.90;99.90;;;;;;5059308;28;20051;-59
2022/05/31 00:26:51;;;;;;;0.80;0.68;;;10.90;99.90;;;;;;5060435;28;20598;-59
2022/05/31 00:29:17;;;;;;;1.08;0.70;;;10.90;99.90;;;;;;5060594;28;20142;-59
2022/05/31 00:31:46;;;;;;;1.05;0.85;;;10.90;99.90;;;;;;5060424;28;20127;-61
2022/05/31 00:34:13;;;;;;;1.10;0.60;;;10.90;99.90;;;;;;5064322;28;20083;-59
2022/05/31 00:36:40;;;;;;;0.60;0.60;;;10.90;99.90;;;;;;5062323;28;20407;-59
2022/05/31 00:39:07;;;;;;;0.70;0.50;;;10.90;99.90;;;;;;5062608;28;20464;-59
2022/05/31 00:41:34;;;;;;;1.08;0.77;;;11.00;99.90;;;;;;5063015;28;20171;-59
2022/05/31 00:44:15;;;;;;;0.77;0.68;;;11.00;99.90;;;;;;5067406;28;20568;-60
2022/05/31 00:46:52;;;;;;;1.20;0.98;;;11.00;99.90;;;;;;5066945;28;20139;-58
2022/05/31 00:49:49;;;;;;;0.50;0.50;;;11.00;99.90;;;;;;5062701;28;20057;-59
2022/05/31 00:52:34;;;;;;;0.85;0.65;;;11.00;99.90;;;;;;5058863;28;20052;-59
2022/05/31 00:55:35;;;;;;;1.67;1.00;;;11.00;99.90;;;;;;5065657;28;20076;-59
2022/05/31 00:58:11;;;;;;;1.42;1.05;;;11.00;99.90;;;;;;5033938;28;20083;-59
2022/05/31 01:00:38;;;;;;;1.25;0.98;;;11.00;99.90;;;;;;5065938;28;20324;-59
2022/05/31 01:03:22;;;;;;;0.73;0.60;;;11.00;99.90;;;;;;5056639;28;20890;-59
2022/05/31 01:06:06;;;;;;;0.70;0.70;;;11.10;99.90;;;;;;5057410;28;20089;-64
2022/05/31 01:08:53;;;;;;;0.80;0.70;;;10.90;99.90;;;;;;5064867;28;20047;-66
2022/05/31 01:11:38;;;;;;;0.65;0.65;;;10.50;99.90;;;;;;5046582;28;20052;-63
2022/05/31 01:14:05;;;;;;;0.77;0.77;;;10.20;99.90;;;;;;5047480;28;20048;-63
2022/05/31 01:16:32;;;;;;;0.90;0.75;;;10.10;99.90;;;;;;5065792;28;20379;-62
2022/05/31 01:19:00;;;;;;;0.93;0.60;;;10.00;99.90;;;;;;5065995;28;20202;-63
2022/05/31 01:21:26;;;;;;;0.50;0.50;;;10.00;99.90;;;;;;5066888;28;20326;-62
2022/05/31 01:24:12;;;;;;;0.65;0.50;;;10.00;99.90;;;;;;5066606;28;20076;-60
2022/05/31 01:26:53;;;;;;;0.45;0.40;;;10.00;99.90;;;;;;5061693;28;20045;-61
2022/05/31 01:29:26;;;;;;;0.30;0.30;;;10.00;99.90;;;;;;5047300;28;20074;-61
2022/05/31 01:32:07;;;;;;;0.60;0.50;;;10.00;99.90;;;;;;5056967;28;20128;-60
2022/05/31 01:34:38;;;;;;;0.52;0.40;;;10.10;99.90;;;;;;5060459;28;20095;-61
2022/05/31 01:37:05;;;;;;;0.40;0.40;;;10.10;99.90;;;;;;5062782;28;20054;-60
2022/05/31 01:39:40;;;;;;;0.47;0.40;;;10.10;99.90;;;;;;5067700;28;20072;-60
2022/05/31 01:42:30;;;;;;;0.50;0.50;;;10.10;99.90;;;;;;5066601;28;20131;-61
2022/05/31 01:45:12;;;;;;;0.55;0.50;;;10.10;99.90;;;;;;5067956;28;20084;-61
2022/05/31 01:47:39;;;;;;;1.50;0.50;;;10.00;99.90;;;;;;5063484;28;20096;-61
2022/05/31 01:50:08;;;;;;;0.60;0.60;;;10.00;99.90;;;;;;5054382;28;20530;-61
2022/05/31 01:52:35;;;;;;;0.40;0.40;;;10.00;99.90;;;;;;5065223;28;20716;-60
2022/05/31 01:55:01;;;;;;;0.70;0.60;;;10.00;99.90;;;;;;5063872;28;20460;-60
2022/05/31 01:57:28;;;;;;;0.60;0.60;;;10.00;99.90;;;;;;5067215;28;20096;-60
2022/05/31 01:59:59;;;;;;;0.60;0.47;;;10.00;99.90;;;;;;5066907;28;20076;-60
2022/05/31 02:02:26;;;;;;;0.68;0.50;;;10.00;99.90;;;;;;5064264;28;20087;-60
2022/05/31 02:04:53;;;;;;;0.45;0.45;;;10.10;99.90;;;;;;5064793;28;20048;-60
2022/05/31 02:07:22;;;;;;;1.05;0.52;;;10.10;99.90;;;;;;5066656;28;20052;-60
2022/05/31 02:09:51;;;;;;;0.73;0.68;;;10.10;99.90;;;;;;5061645;28;20661;-60
2022/05/31 02:12:24;;;;;;;0.50;0.50;;;10.00;99.90;;;;;;5049000;28;20174;-60
2022/05/31 02:14:51;;;;;;;0.50;0.50;;;10.00;99.90;;;;;;5066547;28;20161;-60
2022/05/31 02:17:17;;;;;;;1.13;0.60;;;10.10;99.90;;;;;;5066866;28;20563;-60
2022/05/31 02:19:44;;;;;;;0.60;0.50;;;10.10;99.90;;;;;;5066178;28;20600;-60
2022/05/31 02:22:13;;;;;;;0.80;0.50;;;10.10;99.90;;;;;;5065147;28;20140;-60
2022/05/31 02:24:40;;;;;;;0.75;0.60;;;10.10;99.90;;;;;;5066631;28;20044;-60
2022/05/31 02:27:07;;;;;;;0.60;0.60;;;10.10;99.90;;;;;;5066400;28;20087;-60
2022/05/31 02:29:35;;;;;;;0.85;0.60;;;10.10;99.90;;;;;;5066611;28;20079;-61
2022/05/31 02:32:04;;;;;;;0.60;0.60;;;10.00;99.90;;;;;;5065820;28;20119;-60
2022/05/31 02:34:33;;;;;;;0.28;0.25;;;10.10;99.90;;;;;;5066354;28;20442;-60
2022/05/31 02:37:00;;;;;;;0.50;0.50;;;10.10;99.90;;;;;;5060649;28;20512;-60
2022/05/31 02:39:27;;;;;;;0.50;0.50;;;10.10;99.90;;;;;;5066066;28;20123;-60
2022/05/31 02:41:54;;;;;;;0.65;0.50;;;10.10;99.90;;;;;;5065589;28;20076;-59
2022/05/31 02:44:20;;;;;;;0.50;0.40;;;10.00;99.90;;;;;;5066607;28;20084;-60
2022/05/31 02:46:47;;;;;;;0.40;0.40;;;9.90;99.90;;;;;;5064084;28;20095;-59
2022/05/31 02:49:14;;;;;;;0.50;0.50;;;9.90;99.90;;;;;;5066208;28;20063;-59
2022/05/31 02:51:43;;;;;;;0.40;0.40;;;9.80;99.90;;;;;;5059987;28;20468;-59
2022/05/31 02:54:11;;;;;;;0.40;0.32;;;9.80;99.90;;;;;;5061455;28;20088;-60
2022/05/31 02:56:38;;;;;;;0.50;0.40;;;9.70;99.90;;;;;;5066389;28;20079;-60
2022/05/31 02:59:05;;;;;;;0.30;0.30;;;9.70;99.90;;;;;;5065823;28;20559;-60
2022/05/31 03:01:34;;;;;;;0.85;0.70;;;9.70;99.90;;;;;;5064736;28;20555;-60
2022/05/31 03:04:00;;;;;;;0.40;0.40;;;9.60;99.90;;;;;;5065661;28;20076;-59
2022/05/31 03:06:27;;;;;;;0.40;0.40;;;9.60;99.90;;;;;;5065040;28;20049;-59
2022/05/31 03:08:54;;;;;;;0.40;0.40;;;9.60;99.90;;;;;;5065082;28;20091;-59
2022/05/31 03:11:51;;;;;;;0.30;0.30;;;9.60;99.90;;;;;;5065799;28;20508;-59
2022/05/31 03:14:27;;;;;;;0.77;0.65;;;9.60;99.90;;;;;;5064678;28;20087;-60
2022/05/31 03:17:04;;;;;;;0.65;0.47;;;9.60;99.90;;;;;;5063392;28;20099;-59
2022/05/31 03:19:34;;;;;;;0.30;0.30;;;9.60;99.90;;;;;;5064406;28;20136;-59
2022/05/31 03:22:03;;;;;;;0.30;0.30;;;9.60;99.90;;;;;;5059129;28;20163;-59
2022/05/31 03:24:39;;;;;;;0.65;0.28;;;9.60;99.90;;;;;;5063317;28;20459;-60
2022/05/31 03:27:07;;;;;;;0.40;0.40;;;9.60;99.90;;;;;;5065596;28;20124;-60
2022/05/31 03:29:35;;;;;;;0.30;0.30;;;9.60;99.90;;;;;;5063974;28;20132;-59
2022/05/31 03:32:02;;;;;;;0.30;0.30;;;9.60;99.90;;;;;;5057083;28;20554;-59
2022/05/31 03:34:29;;;;;;;0.30;0.30;;;9.50;99.90;;;;;;5063986;28;20094;-59
2022/05/31 03:36:55;;;;;;;0.30;0.30;;;9.60;99.90;;;;;;5063821;28;20091;-59
2022/05/31 03:39:22;;;;;;;0.40;0.40;;;9.60;99.90;;;;;;5064814;28;20541;-59
2022/05/31 03:41:49;;;;;;;0.40;0.40;;;9.60;99.90;;;;;;5064572;28;20087;-59
2022/05/31 03:44:16;;;;;;;0.28;0.28;;;9.60;99.90;;;;;;5065286;28;20494;-59
2022/05/31 03:46:42;;;;;;;0.30;0.30;;;9.60;99.90;;;;;;5064446;28;20135;-59
2022/05/31 03:49:09;;;;;;;3.03;0.60;;;9.60;99.90;;;;;;5065000;28;20049;-59
2022/05/31 03:51:36;;;;;;;0.40;0.40;;;9.70;99.90;;;;;;5087468;28;20084;-59
2022/05/31 03:54:03;;;;;;;0.30;0.30;;;9.70;99.90;;;;;;5059207;28;20127;-59
2022/05/31 03:56:30;;;;;;;0.20;0.20;;;9.70;99.90;;;;;;5064664;28;20080;-59
2022/05/31 03:58:56;;;;;;;0.30;0.30;;;9.70;99.90;;;;;;5065377;28;20413;-59
2022/05/31 04:01:23;;;;;;;0.40;0.40;;;9.80;99.90;;;;;;5064159;28;20484;-59
2022/05/31 04:03:50;;;;;;;0.35;0.32;;;9.80;99.90;;;;;;5064864;28;20124;-59
2022/05/31 04:06:17;;;;;;;0.35;0.20;;;9.80;99.90;;;;;;5064767;28;20879;-58
2022/05/31 04:08:43;;;;;;;0.28;0.28;;;9.80;99.90;;;;;;5068257;28;20123;-59
2022/05/31 04:11:10;;;;;;;0.32;0.30;;;9.80;99.90;;;;;;5068408;28;20411;-59
2022/05/31 04:13:37;;;;;;;0.35;0.35;;;9.90;99.90;;;;;;5068668;28;20084;-59
2022/05/31 04:16:12;;;;;;;0.30;0.30;;;9.90;99.90;;;;;;5068651;28;20124;-59
2022/05/31 04:18:39;;;;;;;0.50;0.50;;;9.90;99.90;;;;;;5068313;28;20636;-59
2022/05/31 04:21:08;;;;;;;0.30;0.30;;;9.80;99.90;;;;;;5068058;28;20080;-58
2022/05/31 04:26:20;;;;;;;0.25;0.25;;;9.90;99.90;;;;;;5068231;28;20124;-59
2022/05/31 04:28:48;;;;;;;0.20;0.20;;;9.90;99.90;;;;;;5068418;28;20094;-59
2022/05/31 04:31:14;;;;;;;0.40;0.30;;;9.90;99.90;;;;;;5068091;28;20051;-60
2022/05/31 04:33:41;;;;;;;0.35;0.35;;;9.90;99.90;;;;;;5068260;28;20415;-59
2022/05/31 04:36:11;;;;;;;0.20;0.20;;;10.00;99.90;;;;;;5067810;28;20086;-59
2022/05/31 04:38:38;;;;;;;0.70;0.50;;;10.00;99.90;;;;;;5068585;28;20082;-59
2022/05/31 04:41:04;;;;;;;0.70;0.38;;;10.00;99.90;;;;;;5064002;28;20075;-60
2022/05/31 04:43:32;;;;;;;0.47;0.40;;;10.00;99.90;;;;;;5065334;28;20140;-60
2022/05/31 04:46:20;;;;;;;0.47;0.32;;;10.00;99.90;;;;;;5064588;28;20135;-60
2022/05/31 04:48:47;;;;;;;0.40;0.40;;;10.00;99.90;;;;;;5062201;28;20051;-59
2022/05/31 04:51:14;;;;;;;0.70;0.40;;;10.00;99.90;;;;;;5064083;28;20426;-60
2022/05/31 04:53:41;;;;;;;0.35;0.35;;;10.10;99.90;;;;;;5062344;28;20128;-59
2022/05/31 04:56:10;;;;;;;0.57;0.30;;;10.10;99.90;;;;;;5059046;28;20136;-60
2022/05/31 04:58:36;;;;;;;0.30;0.30;;;10.10;99.90;;;;;;5060871;28;20538;-60
2022/05/31 05:01:06;;;;;;;0.40;0.30;;;10.10;99.90;;;;;;5060065;28;20133;-59
2022/05/31 05:03:36;;;;;;;0.30;0.30;;;10.10;99.90;;;;;;5059954;28;20045;-60
2022/05/31 05:06:04;;;;;;;0.50;0.30;;;10.20;99.90;;;;;;5058439;28;20523;-59
2022/05/31 05:08:31;;;;;;;0.22;0.22;;;10.20;99.90;;;;;;5057967;28;20129;-60
2022/05/31 05:11:06;;;;;;;0.35;0.35;;;10.20;99.90;;;;;;5054329;28;20057;-59
2022/05/31 05:13:32;;;;;;;0.30;0.30;;;10.20;99.90;;;;;;5060152;28;20083;-59
2022/05/31 05:16:00;;;;;;;0.40;0.40;;;10.30;99.90;;;;;;5060338;28;20543;-58
2022/05/31 05:18:27;;;;;;;0.30;0.30;;;10.30;99.90;;;;;;5060663;28;20434;-59
2022/05/31 05:20:54;;;;;;;0.30;0.30;;;10.30;99.90;;;;;;5056519;28;20478;-59
2022/05/31 05:23:20;;;;;;;0.40;0.30;;;10.30;99.90;;;;;;5059724;28;20155;-59
2022/05/31 05:25:51;;;;;;;0.52;0.40;;;10.30;99.90;;;;;;5060280;28;20044;-59
2022/05/31 05:31:03;;;;;;;0.30;0.30;;;10.30;99.90;;;;;;5055661;28;20259;-59
2022/05/31 05:33:30;;;;;;;0.30;0.30;;;10.40;99.90;;;;;;5060425;28;20044;-59
2022/05/31 05:35:57;;;;;;;0.30;0.30;;;10.40;99.90;;;;;;5059484;28;20091;-58
2022/05/31 05:38:24;;;;;;;0.28;0.28;;;10.40;99.90;;;;;;5059780;28;20535;-59
2022/05/31 05:40:50;;;;;;;0.32;0.32;;;10.40;99.90;;;;;;5053872;28;20088;-59
2022/05/31 05:43:17;;;;;;;0.30;0.30;;;10.40;99.90;;;;;;5056592;28;20186;-59
2022/05/31 05:45:44;;;;;;;0.40;0.40;;;10.40;99.90;;;;;;5058137;28;20088;-59
2022/05/31 05:48:11;;;;;;;0.55;0.55;;;10.40;99.90;;;;;;5060304;28;20135;-59
2022/05/31 05:50:38;;;;;;;0.35;0.30;;;10.40;99.90;;;;;;5055095;28;20135;-58
2022/05/31 05:53:06;;;;;;;0.90;0.40;;;10.50;99.90;;;;;;5056399;28;20043;-59
2022/05/31 05:55:35;;;;;;;0.40;0.40;;;10.60;99.90;;;;;;5057824;28;20109;-59
2022/05/31 05:58:03;;;;;;;0.45;0.40;;;10.70;99.90;;;;;;5060475;28;20166;-59
2022/05/31 06:00:30;;;;;;;0.80;0.57;;;10.80;99.90;;;;;;5056007;28;20183;-59
2022/05/31 06:03:04;;;;;;;0.98;0.65;;;10.80;99.90;;;;;;5068442;28;20088;-60
2022/05/31 06:05:31;;;;;;;0.35;0.35;;;10.80;99.90;;;;;;5056832;28;20301;-60
2022/05/31 06:08:02;;;;;;;0.60;0.50;;;10.70;99.90;;;;;;5061127;28;20040;-59
2022/05/31 06:10:33;;;;;;;0.30;0.30;;;10.80;99.90;;;;;;5058867;28;20578;-60
2022/05/31 06:13:15;;;;;;;0.55;0.45;;;10.70;99.90;;;;;;5058222;28;20047;-59
2022/05/31 06:15:47;;;;;;;0.50;0.47;;;10.80;99.90;;;;;;5061755;28;20155;-60
2022/05/31 06:18:17;;;;;;;0.43;0.43;;;10.80;99.90;;;;;;5075228;28;20576;-60
2022/05/31 06:20:52;;;;;;;0.20;0.20;;;10.80;99.90;;;;;;5056494;28;20106;-60
2022/05/31 06:23:19;;;;;;;0.30;0.30;;;10.80;99.90;;;;;;5058151;28;20130;-60
2022/05/31 06:25:45;;;;;;;0.40;0.40;;;10.90;99.90;;;;;;5073035;28;20510;-60
2022/05/31 06:28:12;;;;;;;0.45;0.45;;;11.00;99.90;;;;;;5056842;28;20135;-60
2022/05/31 06:30:39;;;;;;;0.70;0.65;;;11.00;99.90;;;;;;5053564;28;20032;-60
2022/05/31 06:33:06;;;;;;;0.40;0.40;;;11.20;99.90;;;;;;5046097;28;20638;-60
2022/05/31 06:35:32;;;;;;;0.38;0.38;;;11.30;99.90;;;;;;5052391;28;20654;-60
2022/05/31 06:37:59;;;;;;;0.38;0.35;;;11.30;99.90;;;;;;5042972;28;20136;-59
2022/05/31 06:40:26;;;;;;;0.30;0.30;;;11.40;99.90;;;;;;5056552;28;20178;-60
2022/05/31 06:42:53;;;;;;;0.47;0.40;;;11.40;99.90;;;;;;5059517;28;20156;-59
2022/05/31 06:45:20;;;;;;;0.43;0.43;;;11.30;99.90;;;;;;5060837;28;20451;-60
2022/05/31 06:47:47;;;;;;;0.22;0.22;;;11.30;99.90;;;;;;5048523;28;20507;-60
2022/05/31 06:50:13;;;;;;;0.40;0.40;;;11.30;99.90;;;;;;5058316;28;20165;-60
2022/05/31 06:58:11;;;;;;;0.40;0.30;;;11.40;99.90;;;;;;5059195;28;20910;-60
2022/05/31 07:00:37;;;;;;;0.40;0.40;;;11.40;99.90;;;;;;5055782;28;20049;-59
2022/05/31 07:03:10;;;;;;;0.30;0.30;;;11.40;99.90;;;;;;5054011;28;20056;-60
2022/05/31 07:05:40;;;;;;;0.52;0.43;;;11.40;99.90;;;;;;5058306;28;20402;-60
2022/05/31 07:08:09;;;;;;;0.50;0.47;;;11.60;99.90;;;;;;5060564;28;20067;-60
2022/05/31 07:10:36;;;;;;;0.63;0.50;;;11.60;99.90;;;;;;5057477;28;20080;-60
2022/05/31 07:13:03;;;;;;;0.70;0.60;;;11.70;99.90;;;;;;5057941;28;20048;-60
2022/05/31 07:15:31;;;;;;;0.45;0.35;;;11.90;99.90;;;;;;5048939;28;20127;-60
2022/05/31 07:18:18;;;;;;;0.80;0.57;;;12.00;99.90;;;;;;5038690;28;20053;-60
2022/05/31 07:20:45;;;;;;;0.80;0.70;;;12.20;99.90;;;;;;5057540;28;20572;-60
2022/05/31 07:23:12;;;;;;;1.02;0.60;;;12.30;99.90;;;;;;5056602;28;20418;-60
2022/05/31 07:25:39;;;;;;;1.15;0.75;;;12.40;99.90;;;;;;5053496;28;20231;-58
2022/05/31 07:28:06;;;;;;;0.50;0.50;;;12.60;99.90;;;;;;5047634;28;20126;-58
2022/05/31 07:30:34;;;;;;;0.40;0.40;;;12.70;99.90;;;;;;5054954;28;20080;-59
2022/05/31 07:33:01;;;;;;;0.50;0.40;;;12.90;99.90;;;;;;5058758;28;20053;-59
2022/05/31 07:35:49;;;;;;;0.50;0.50;;;13.10;99.90;;;;;;5058146;28;20048;-58
2022/05/31 07:38:19;;;;;;;0.70;0.45;;;13.20;99.90;;;;;;5057771;28;20176;-57
2022/05/31 07:40:47;;;;;;;0.50;0.50;;;13.20;99.90;;;;;;5044566;28;20394;-58
2022/05/31 07:43:14;;;;;;;0.35;0.35;;;13.40;99.90;;;;;;5061416;28;20132;-59
2022/05/31 07:45:41;;;;;;;0.47;0.47;;;13.50;99.90;;;;;;5082845;28;20071;-58
2022/05/31 07:48:08;;;;;;;0.57;0.57;;;13.70;99.90;;;;;;5072348;28;20048;-58
2022/05/31 07:50:34;;;;;;;0.65;0.50;;;13.80;99.90;;;;;;5060331;28;20166;-58
2022/05/31 07:53:03;;;;;;;0.98;0.65;;;13.80;99.90;;;;;;5061499;28;20048;-57
2022/05/31 07:55:30;;;;;;;1.50;0.47;;;13.70;99.90;;;;;;5061954;28;20320;-58
2022/05/31 08:00:42;;;;;;;0.52;0.52;;;13.60;99.90;;;;;;5062274;28;20078;-58
2022/05/31 08:03:09;;;;;;;0.73;0.38;;;13.70;99.90;;;;;;5054895;28;20143;-59
2022/05/31 08:05:37;;;;;;;0.52;0.43;;;13.90;99.90;;;;;;5059659;28;20514;-58
2022/05/31 08:08:04;;;;;;;0.60;0.60;;;13.90;99.90;;;;;;5066029;28;20242;-59
2022/05/31 08:10:51;;;;;;;1.15;0.60;;;13.80;99.90;;;;;;5050772;28;20055;-59
2022/05/31 08:13:18;;;;;;;0.90;0.63;;;13.90;99.90;;;;;;5055649;28;20171;-58
2022/05/31 08:15:44;;;;;;;0.70;0.50;;;14.00;99.90;;;;;;5060094;28;20135;-58
2022/05/31 08:18:11;;;;;;;0.82;0.50;;;14.00;99.90;;;;;;5061413;28;20179;-58
2022/05/31 08:20:39;;;;;;;0.82;0.73;;;14.00;99.90;;;;;;5066495;28;20371;-58
2022/05/31 08:23:06;;;;;;;0.57;0.40;;;14.00;99.90;;;;;;5060811;28;20052;-58
2022/05/31 08:25:38;;;;;;;0.52;0.43;;;14.10;99.90;;;;;;5061886;28;20099;-58
2022/05/31 08:28:05;;;;;;;0.50;0.47;;;14.10;99.90;;;;;;5061130;28;20452;-59
2022/05/31 08:30:32;;;;;;;0.85;0.70;;;14.00;99.90;;;;;;5060392;28;20243;-58
2022/05/31 08:33:00;;;;;;;2.05;0.77;;;14.00;99.90;;;;;;5061259;28;20546;-58
2022/05/31 08:35:27;;;;;;;0.70;0.60;;;14.00;99.90;;;;;;5060297;28;20477;-58
2022/05/31 08:38:15;;;;;;;0.43;0.43;;;14.00;99.90;;;;;;5048077;28;20048;-58
2022/05/31 08:41:01;;;;;;;2.15;0.55;;;14.20;99.90;;;;;;5060748;28;20052;-58
2022/05/31 08:43:47;;;;;;;1.52;0.60;;;14.20;99.90;;;;;;5051480;28;20464;-58
2022/05/31 08:46:55;;;;;;;0.68;0.50;;;14.20;99.90;;;;;;5060603;28;20083;-58
2022/05/31 08:51:52;;;;;;;0.75;0.47;;;14.10;99.90;;;;;;5055514;28;20423;-58
2022/05/31 08:52:14;;;;;;;0.50;0.50;;;14.00;99.90;;;;;;5058451;28;20247;-58
2022/05/31 08:57:40;;;;;;;1.35;0.77;;;14.00;99.90;;;;;;5056320;28;20165;-59
2022/05/31 09:00:20;;;;;;;1.10;0.60;;;13.90;99.90;;;;;;5055993;28;20049;-58
2022/05/31 09:03:12;;;;;;;1.42;0.60;;;13.90;99.90;;;;;;5075908;28;20053;-58
2022/05/31 09:06:06;;;;;;;0.95;0.77;;;14.00;99.90;;;;;;5065555;28;20144;-58
2022/05/31 09:08:44;;;;;;;1.27;0.70;;;14.00;99.90;;;;;;5062368;28;20044;-59
2022/05/31 09:11:33;;;;;;;2.10;1.35;;;14.10;99.90;;;;;;5079861;28;20050;-58
2022/05/31 09:14:19;;;;;;;1.65;0.70;;;14.20;99.90;;;;;;5053120;28;20155;-58
2022/05/31 09:17:48;;;;;;;0.98;0.55;;;14.40;99.90;;;;;;5069939;28;20055;-58
2022/05/31 09:20:17;;;;;;;1.20;0.80;;;14.50;99.90;;;;;;4972676;28;20181;-59
2022/05/31 09:22:45;;;;;;;0.95;0.80;;;14.60;99.90;;;;;;5052861;28;20403;-59
2022/05/31 09:25:13;;;;;;;1.15;0.73;;;14.90;99.90;;;;;;5058532;28;20419;-58
2022/05/31 09:27:47;;;;;;;1.15;0.70;;;15.00;99.90;;;;;;5059217;28;20139;-59
2022/05/31 09:30:20;;;;;;;0.85;0.70;;;15.00;99.90;;;;;;5063124;28;20087;-58
2022/05/31 09:32:57;;;;;;;0.65;0.52;;;15.10;99.90;;;;;;5063684;28;20129;-58
2022/05/31 09:35:36;;;;;;;1.92;0.90;;;15.20;99.90;;;;;;5066377;28;20453;-58
2022/05/31 09:38:10;;;;;;;0.85;0.50;;;15.30;99.90;;;;;;5065071;28;20052;-58
2022/05/31 09:40:47;;;;;;;1.33;0.60;;;15.70;99.90;;;;;;5066494;28;20048;-59
2022/05/31 09:43:14;;;;;;;0.95;0.60;;;15.70;99.90;;;;;;5066139;28;20048;-59
2022/05/31 09:45:48;;;;;;;0.40;0.40;;;15.90;99.90;;;;;;5066384;28;20081;-58
2022/05/31 09:48:15;;;;;;;0.40;0.40;;;15.90;99.90;;;;;;5065643;28;20048;-58
2022/05/31 09:50:44;;;;;;;0.80;0.50;;;15.90;99.90;;;;;;5065744;28;20080;-58
2022/05/31 09:59:07;;;;;;;1.00;0.70;;;16.20;99.90;;;;;;5063712;28;20051;-59
2022/05/31 10:01:41;;;;;;;0.68;0.50;;;16.30;99.90;;;;;;5064738;28;20040;-58
2022/05/31 10:04:10;;;;;;;0.70;0.50;;;16.60;99.90;;;;;;5065593;28;21252;-59
2022/05/31 10:06:51;;;;;;;0.40;0.40;;;16.80;99.90;;;;;;5065738;28;20879;-58
2022/05/31 10:09:19;;;;;;;0.32;0.32;;;16.80;99.90;;;;;;5065950;28;20055;-58
2022/05/31 10:11:46;;;;;;;0.30;0.30;;;16.80;99.90;;;;;;5066069;28;20485;-58
2022/05/31 10:14:22;;;;;;;1.15;0.70;;;16.80;99.90;;;;;;5066389;28;20048;-58
2022/05/31 10:16:49;;;;;;;1.27;0.63;;;16.60;99.90;;;;;;5065986;28;20167;-58
2022/05/31 10:19:27;;;;;;;0.77;0.55;;;16.50;99.90;;;;;;5065058;28;20052;-58
2022/05/31 10:21:54;;;;;;;0.95;0.70;;;16.50;99.90;;;;;;5065035;28;20075;-58
2022/05/31 10:24:28;;;;;;;0.82;0.70;;;16.50;99.90;;;;;;5062691;28;20403;-59
2022/05/31 10:27:20;;;;;;;1.15;0.50;;;16.60;99.90;;;;;;5060994;28;20451;-59
2022/05/31 10:30:01;;;;;;;1.80;0.43;;;16.80;99.90;;;;;;5062555;28;20169;-59
2022/05/31 10:32:46;;;;;;;1.08;0.50;;;16.80;99.90;;;;;;5061859;28;20499;-59
2022/05/31 10:35:28;;;;;;;1.10;1.00;;;16.80;99.90;;;;;;5060815;28;20110;-59
2022/05/31 10:38:00;;;;;;;0.80;0.60;;;16.90;99.90;;;;;;5061900;28;20478;-59
2022/05/31 10:40:45;;;;;;;0.90;0.50;;;17.00;99.50;;;;;;5063695;28;20083;-59
2022/05/31 10:43:26;;;;;;;0.30;0.30;;;17.10;99.90;;;;;;5064944;28;20045;-59
2022/05/31 10:45:53;;;;;;;1.27;0.50;;;17.30;99.90;;;;;;5064853;28;20139;-59
2022/05/31 10:48:21;;;;;;;0.40;0.40;;;17.60;99.90;;;;;;5065162;28;20078;-59
2022/05/31 10:51:09;;;;;;;0.35;0.30;;;17.70;99.30;;;;;;5064153;28;20096;-60
2022/05/31 10:53:49;;;;;;;0.40;0.40;;;17.60;99.40;;;;;;5063078;28;20139;-59
2022/05/31 10:56:20;;;;;;;0.30;0.28;;;17.50;99.20;;;;;;5061654;28;20094;-59
2022/05/31 10:58:52;;;;;;;0.63;0.50;;;17.40;99.90;;;;;;5070402;28;20380;-59
2022/05/31 11:01:23;;;;;;;0.20;0.20;;;17.20;99.90;;;;;;5062428;28;20048;-59
2022/05/31 11:04:18;;;;;;;0.82;0.70;;;16.90;99.90;;;;;;5063595;28;20102;-59
2022/05/31 11:07:00;;;;;;;0.75;0.50;;;16.60;99.90;;;;;;5071266;28;20127;-59
2022/05/31 11:12:56;;;;;;;0.45;0.35;;;16.30;99.90;;;;;;5044359;28;20119;-59
2022/05/31 11:15:32;;;;;;;0.47;0.30;;;16.40;99.90;;;;;;5064800;28;20044;-58
2022/05/31 11:18:17;;;;;;;0.77;0.40;;;16.40;99.90;;;;;;5065065;28;20139;-59
2022/05/31 11:20:52;;;;;;;0.40;0.30;;;16.50;99.90;;;;;;5063879;28;20143;-59
2022/05/31 11:23:54;;;;;;;0.45;0.30;;;16.70;99.90;;;;;;5061753;28;20521;-59
2022/05/31 11:26:40;;;;;;;0.22;0.22;;;17.00;99.90;;;;;;4998575;28;20053;-59
2022/05/31 11:29:47;;;;;;;0.30;0.30;;;17.40;99.60;;;;;;5061210;28;20491;-59
2022/05/31 11:32:34;;;;;;;0.30;0.30;;;17.80;97.10;;;;;;5063031;28;20053;-59
2022/05/31 11:35:13;;;;;;;0.22;0.22;;;18.60;99.50;;;;;;5063288;28;20080;-59
2022/05/31 11:37:57;;;;;;;0.28;0.28;;;19.30;96.10;;;;;;5064474;28;20165;-59
2022/05/31 11:40:27;;;;;;;0.30;0.30;;;19.40;94.10;;;;;;5063009;28;20131;-59
2022/05/31 11:43:06;;;;;;;0.32;0.20;;;19.10;94.50;;;;;;5064953;28;20460;-59
2022/05/31 11:45:42;;;;;;;0.50;0.50;;;19.00;95.00;;;;;;5051309;28;20048;-60
2022/05/31 11:48:45;;;;;;;0.82;0.40;;;18.70;96.40;;;;;;5069667;28;20106;-60
2022/05/31 11:51:31;;;;;;;0.30;0.20;;;18.30;95.90;;;;;;5064147;28;20131;-60
2022/05/31 11:54:28;;;;;;;0.55;0.35;;;17.90;96.60;;;;;;5054621;28;20446;-60
2022/05/31 11:57:10;;;;;;;1.40;0.75;;;17.20;98.30;;;;;;5041821;28;20232;-60
2022/05/31 11:59:58;;;;;;;1.73;0.82;;;16.20;99.90;;;;;;5055906;28;20048;-64
2022/05/31 12:02:28;;;;;;;1.65;0.80;;;14.00;99.90;;;;;;5054329;28;20084;-62
2022/05/31 12:05:12;;;;;;;1.63;0.80;;;13.20;99.90;;;;;;5056606;28;20052;-61
2022/05/31 12:07:58;;;;;;;3.17;1.35;;;13.00;99.90;;;;;;5052219;28;20679;-61
2022/05/31 12:10:33;;;;;;;1.60;0.73;;;12.70;99.90;;;;;;5058415;28;20049;-61
2022/05/31 12:13:04;;;;;;;1.33;0.70;;;12.70;99.90;;;;;;5063517;28;20048;-60
2022/05/31 12:15:33;;;;;;;0.63;0.60;;;12.50;99.90;;;;;;5055160;28;20470;-61
2022/05/31 12:18:09;;;;;;;1.33;0.70;;;12.50;99.90;;;;;;5068101;28;20142;-61
2022/05/31 12:20:51;;;;;;;0.88;0.73;;;12.70;99.90;;;;;;5069183;28;20056;-61
2022/05/31 12:23:48;;;;;;;1.08;0.98;;;13.50;99.90;;;;;;5060681;28;20147;-61
2022/05/31 12:26:34;;;;;;;0.80;0.77;;;14.20;99.90;;;;;;5046487;28;20131;-61
2022/05/31 12:29:08;;;;;;;0.75;0.60;;;14.70;99.90;;;;;;5060147;28;20613;-60
2022/05/31 12:31:37;;;;;;;0.50;0.50;;;14.90;99.90;;;;;;5078734;28;20045;-59
2022/05/31 12:34:21;;;;;;;1.65;0.70;;;14.20;99.90;;;;;;5064984;28;20076;-59
2022/05/31 12:37:06;;;;;;;0.40;0.40;;;14.00;99.90;;;;;;5067173;28;20135;-59
2022/05/31 12:39:34;;;;;;;1.60;0.70;;;13.80;99.90;;;;;;5068161;28;20135;-59
2022/05/31 12:42:24;;;;;;;0.95;0.70;;;13.60;99.90;;;;;;5066367;28;20091;-59
2022/05/31 12:44:51;;;;;;;0.65;0.50;;;13.90;99.90;;;;;;5066185;28;20590;-58
2022/05/31 12:47:31;;;;;;;0.60;0.60;;;13.90;99.90;;;;;;5066140;28;20594;-59
2022/05/31 12:50:05;;;;;;;1.50;0.80;;;13.70;99.90;;;;;;5066970;28;20132;-58
2022/05/31 12:55:23;;;;;;;0.73;0.63;;;13.20;99.90;;;;;;5067170;28;20053;-59
2022/05/31 12:58:29;;;;;;;0.63;0.50;;;13.10;99.90;;;;;;5067808;28;20411;-59
2022/05/31 13:01:12;;;;;;;0.50;0.40;;;13.50;99.90;;;;;;5067298;28;20096;-58
2022/05/31 13:03:51;;;;;;;0.65;0.65;;;13.90;99.90;;;;;;5067005;28;20534;-59
2022/05/31 13:06:38;;;;;;;0.93;0.50;;;14.50;99.90;;;;;;5066683;28;20515;-59
2022/05/31 13:09:12;;;;;;;0.50;0.43;;;14.60;99.90;;;;;;5066934;28;20448;-58
2022/05/31 13:20:21;;;;;;;0.43;0.40;;;14.40;99.90;;;;;;5062080;28;20048;-59
2022/05/31 13:22:52;;;;;;;0.40;0.40;;;14.40;99.90;;;;;;5063471;28;20080;-59
2022/05/31 13:25:19;;;;;;;0.30;0.30;;;14.60;99.90;;;;;;5062334;28;20056;-59
2022/05/31 13:27:54;;;;;;;0.77;0.32;;;15.10;99.90;;;;;;5063795;28;20049;-59
2022/05/31 13:30:26;;;;;;;0.30;0.30;;;15.00;99.90;;;;;;5064526;28;20044;-58
2022/05/31 13:32:53;;;;;;;0.45;0.40;;;14.80;99.90;;;;;;5066671;28;20126;-58
2022/05/31 13:35:30;;;;;;;0.43;0.40;;;14.60;99.90;;;;;;5066030;28;20052;-58
2022/05/31 13:38:04;;;;;;;0.30;0.30;;;14.40;99.90;;;;;;5065988;28;20059;-58
2022/05/31 13:40:40;;;;;;;0.73;0.50;;;14.50;99.90;;;;;;5064754;28;20048;-59
2022/05/31 13:43:22;;;;;;;0.40;0.40;;;14.50;99.90;;;;;;5065247;28;20083;-58
2022/05/31 13:45:50;;;;;;;0.50;0.40;;;14.70;99.90;;;;;;5067202;28;20064;-58
2022/05/31 13:48:25;;;;;;;0.60;0.60;;;14.80;99.90;;;;;;5065897;28;20169;-59
2022/05/31 13:50:52;;;;;;;0.65;0.52;;;15.60;99.90;;;;;;5064861;28;20128;-59
2022/05/31 13:53:19;;;;;;;0.50;0.50;;;15.90;99.90;;;;;;5065635;28;20056;-59
2022/05/31 13:55:46;;;;;;;0.60;0.60;;;16.40;99.90;;;;;;5066958;28;20059;-59